Time,TemperatureF,DewpointF,PressureIn,WindDirection,WindDirectionDegrees,WindSpeedMPH,WindSpeedGustMPH,Humidity,HourlyPrecipIn,Conditions,Clouds,dailyrainin,SoftwareType,DateUTC
2013-01-18 00:05:00,36.0,29.8,30.45,NNW,340,3.0,5.0,78,0.00,,,0.00,Wunderground v.1.15,2013-01-18 06:05:00,
2013-01-18 00:10:00,36.1,29.9,30.45,NNW,341,2.0,2.0,78,0.00,,,0.00,Wunderground v.1.15,2013-01-18 06:10:00,
2013-01-18 00:20:00,36.3,29.8,30.45,NNW,348,0.0,11.0,77,0.00,,,0.00,Wunderground v.1.15,2013-01-18 06:20:00,
2013-01-18 00:30:00,36.3,29.8,30.45,NNW,348,1.0,1.0,77,0.00,,,0.00,Wunderground v.1.15,2013-01-18 06:30:00,
2013-01-18 00:50:00,35.6,29.4,30.45,NNW,348,0.0,11.0,78,0.00,,,0.00,Wunderground v.1.15,2013-01-18 06:50:00,
2013-01-18 01:00:00,35.3,29.4,30.46,NNW,348,0.0,11.0,79,0.00,,,0.00,Wunderground v.1.15,2013-01-18 07:00:00,
2013-01-18 01:10:00,35.0,29.1,30.46,NNW,348,0.0,11.0,79,0.00,,,0.00,Wunderground v.1.15,2013-01-18 07:10:00,
2013-01-18 01:20:00,34.9,29.0,30.46,NNW,348,0.0,11.0,79,0.00,,,0.00,Wunderground v.1.15,2013-01-18 07:20:00,
2013-01-18 01:30:00,34.8,29.0,30.47,NNW,348,0.0,11.0,79,0.00,,,0.00,Wunderground v.1.15,2013-01-18 07:30:00,
2013-01-18 01:40:00,34.6,28.8,30.47,NNW,348,0.0,11.0,79,0.00,,,0.00,Wunderground v.1.15,2013-01-18 07:40:00,
2013-01-18 01:50:00,34.4,28.6,30.47,NNW,348,0.0,11.0,79,0.00,,,0.00,Wunderground v.1.15,2013-01-18 07:50:00,
2013-01-18 02:00:00,34.1,28.6,30.48,NNW,348,0.0,11.0,80,0.00,,,0.00,Wunderground v.1.15,2013-01-18 08:00:00,
2013-01-18 02:10:00,33.8,28.0,30.49,NNW,348,0.0,11.0,79,0.00,,,0.00,Wunderground v.1.15,2013-01-18 08:10:00,
2013-01-18 02:20:00,33.7,28.2,30.49,NNW,348,0.0,11.0,80,0.00,,,0.00,Wunderground v.1.15,2013-01-18 08:20:00,
2013-01-18 02:30:00,33.6,28.1,30.49,NNW,348,0.0,11.0,80,0.00,,,0.00,Wunderground v.1.15,2013-01-18 08:30:00,
2013-01-18 02:40:00,33.1,27.9,30.49,NNW,348,0.0,11.0,81,0.00,,,0.00,Wunderground v.1.15,2013-01-18 08:40:00,
2013-01-18 02:50:00,32.6,27.7,30.49,NNW,348,0.0,11.0,82,0.00,,,0.00,Wunderground v.1.15,2013-01-18 08:50:00,
2013-01-18 03:05:00,31.8,27.2,30.49,NNW,348,0.0,11.0,83,0.00,,,0.00,Wunderground v.1.15,2013-01-18 09:05:00,
2013-01-18 03:10:00,31.6,27.3,30.49,NNW,348,0.0,11.0,84,0.00,,,0.00,Wunderground v.1.15,2013-01-18 09:10:00,
2013-01-18 03:20:00,31.4,27.1,30.49,NNW,348,0.0,11.0,84,0.00,,,0.00,Wunderground v.1.15,2013-01-18 09:20:00,
2013-01-18 03:30:00,31.2,27.2,30.49,NNW,348,0.0,11.0,85,0.00,,,0.00,Wunderground v.1.15,2013-01-18 09:30:00,
2013-01-18 03:40:00,31.0,27.3,30.49,NNW,348,0.0,11.0,86,0.00,,,0.00,Wunderground v.1.15,2013-01-18 09:40:00,
2013-01-18 03:50:00,30.7,27.0,30.49,NNW,348,0.0,11.0,86,0.00,,,0.00,Wunderground v.1.15,2013-01-18 09:50:00,
2013-01-18 04:00:00,30.6,27.2,30.49,NNW,348,0.0,11.0,87,0.00,,,0.00,Wunderground v.1.15,2013-01-18 10:00:00,
2013-01-18 04:10:00,30.6,27.2,30.49,NNW,348,0.0,11.0,87,0.00,,,0.00,Wunderground v.1.15,2013-01-18 10:10:00,
2013-01-18 04:20:00,30.6,27.2,30.49,NNW,348,0.0,11.0,87,0.00,,,0.00,Wunderground v.1.15,2013-01-18 10:20:00,
2013-01-18 04:30:00,30.3,26.9,30.49,NNW,348,0.0,11.0,87,0.00,,,0.00,Wunderground v.1.15,2013-01-18 10:30:00,
2013-01-18 04:40:00,30.1,26.7,30.50,NNW,348,0.0,11.0,87,0.00,,,0.00,Wunderground v.1.15,2013-01-18 10:40:00,
2013-01-18 04:50:00,30.0,26.9,30.50,NNW,348,0.0,11.0,88,0.00,,,0.00,Wunderground v.1.15,2013-01-18 10:50:00,
2013-01-18 05:00:00,30.1,27.0,30.49,NNW,348,0.0,11.0,88,0.00,,,0.00,Wunderground v.1.15,2013-01-18 11:00:00,
2013-01-18 05:10:00,30.0,26.9,30.49,NNW,348,0.0,11.0,88,0.00,,,0.00,Wunderground v.1.15,2013-01-18 11:10:00,
2013-01-18 05:20:00,29.8,26.7,30.49,NNW,348,0.0,11.0,88,0.00,,,0.00,Wunderground v.1.15,2013-01-18 11:20:00,
2013-01-18 05:30:00,29.7,26.9,30.49,NNW,348,0.0,11.0,89,0.00,,,0.00,Wunderground v.1.15,2013-01-18 11:30:00,
2013-01-18 05:40:00,30.1,27.3,30.49,NNW,348,0.0,11.0,89,0.00,,,0.00,Wunderground v.1.15,2013-01-18 11:40:00,
2013-01-18 05:50:00,29.8,27.0,30.49,NNW,348,0.0,11.0,89,0.00,,,0.00,Wunderground v.1.15,2013-01-18 11:50:00,
2013-01-18 06:00:00,29.5,26.7,30.50,NNW,348,0.0,11.0,89,0.00,,,0.00,Wunderground v.1.15,2013-01-18 12:00:00,
2013-01-18 06:10:00,29.3,26.5,30.50,NNW,348,0.0,11.0,89,0.00,,,0.00,Wunderground v.1.15,2013-01-18 12:10:00,
2013-01-18 06:20:00,29.4,26.8,30.50,NNW,348,0.0,11.0,90,0.00,,,0.00,Wunderground v.1.15,2013-01-18 12:20:00,
2013-01-18 06:30:00,29.4,26.8,30.51,NNW,348,0.0,11.0,90,0.00,,,0.00,Wunderground v.1.15,2013-01-18 12:30:00,
2013-01-18 06:40:00,29.1,26.3,30.51,NNW,348,0.0,11.0,89,0.00,,,0.00,Wunderground v.1.15,2013-01-18 12:40:00,
2013-01-18 06:50:00,29.3,26.7,30.51,NNW,348,0.0,11.0,90,0.00,,,0.00,Wunderground v.1.15,2013-01-18 12:50:00,
2013-01-18 07:00:00,29.1,26.5,30.51,NNW,348,0.0,11.0,90,0.00,,,0.00,Wunderground v.1.15,2013-01-18 13:00:00,
2013-01-18 07:10:00,28.9,26.3,30.51,NNW,348,0.0,11.0,90,0.00,,,0.00,Wunderground v.1.15,2013-01-18 13:10:00,
2013-01-18 07:20:00,28.8,26.2,30.51,NNW,348,0.0,11.0,90,0.00,,,0.00,Wunderground v.1.15,2013-01-18 13:20:00,
2013-01-18 07:30:00,29.4,27.1,30.51,NNW,348,0.0,11.0,91,0.00,,,0.00,Wunderground v.1.15,2013-01-18 13:30:00,
2013-01-18 07:40:00,30.5,28.2,30.52,NNW,348,0.0,11.0,91,0.00,,,0.00,Wunderground v.1.15,2013-01-18 13:40:00,
2013-01-18 07:50:00,31.5,29.2,30.52,NNW,348,0.0,11.0,91,0.00,,,0.00,Wunderground v.1.15,2013-01-18 13:50:00,
2013-01-18 08:00:00,32.3,29.7,30.52,NNW,348,0.0,11.0,90,0.00,,,0.00,Wunderground v.1.15,2013-01-18 14:00:00,
2013-01-18 08:10:00,32.9,29.7,30.52,NNW,348,0.0,11.0,88,0.00,,,0.00,Wunderground v.1.15,2013-01-18 14:10:00,
2013-01-18 08:20:00,33.7,30.0,30.52,NNW,348,0.0,11.0,86,0.00,,,0.00,Wunderground v.1.15,2013-01-18 14:20:00,
2013-01-18 08:30:00,34.2,29.6,30.53,NNE,24,0.0,11.0,83,0.00,,,0.00,Wunderground v.1.15,2013-01-18 14:30:00,
2013-01-18 08:40:00,35.0,29.5,30.53,ENE,57,0.0,11.0,80,0.00,,,0.00,Wunderground v.1.15,2013-01-18 14:40:00,
2013-01-18 08:50:00,35.9,30.0,30.53,ENE,59,0.0,11.0,79,0.00,,,0.00,Wunderground v.1.15,2013-01-18 14:50:00,
2013-01-18 09:00:00,36.5,29.7,30.54,ENE,71,0.0,11.0,76,0.00,,,0.00,Wunderground v.1.15,2013-01-18 15:00:00,
2013-01-18 09:10:00,37.4,30.2,30.54,SE,133,0.0,11.0,75,0.00,,,0.00,Wunderground v.1.15,2013-01-18 15:10:00,
2013-01-18 09:20:00,38.4,30.8,30.54,SE,132,0.0,11.0,74,0.00,,,0.00,Wunderground v.1.15,2013-01-18 15:20:00,
2013-01-18 09:30:00,39.2,31.3,30.54,East,88,0.0,11.0,73,0.00,,,0.00,Wunderground v.1.15,2013-01-18 15:30:00,
2013-01-18 09:40:00,39.8,31.5,30.54,East,101,0.0,11.0,72,0.00,,,0.00,Wunderground v.1.15,2013-01-18 15:40:00,
2013-01-18 09:50:00,40.0,30.6,30.54,East,99,1.0,11.0,69,0.00,,,0.00,Wunderground v.1.15,2013-01-18 15:50:00,
2013-01-18 10:00:00,40.7,31.3,30.54,East,100,1.0,1.0,69,0.00,,,0.00,Wunderground v.1.15,2013-01-18 16:00:00,
2013-01-18 10:10:00,41.5,31.4,30.54,ESE,107,0.0,11.0,67,0.00,,,0.00,Wunderground v.1.15,2013-01-18 16:10:00,
2013-01-18 10:20:00,42.5,31.2,30.54,SE,141,1.0,11.0,64,0.00,,,0.00,Wunderground v.1.15,2013-01-18 16:20:00,
2013-01-18 10:30:00,42.8,30.7,30.54,SE,144,0.0,11.0,62,0.00,,,0.00,Wunderground v.1.15,2013-01-18 16:30:00,
2013-01-18 10:40:00,42.8,31.1,30.53,ESE,123,0.0,11.0,63,0.00,,,0.00,Wunderground v.1.15,2013-01-18 16:40:00,
2013-01-18 10:50:00,44.5,31.5,30.53,ESE,119,0.0,11.0,60,0.00,,,0.00,Wunderground v.1.15,2013-01-18 16:50:00,
2013-01-18 11:00:00,44.7,32.1,30.53,ESE,114,0.0,11.0,61,0.00,,,0.00,Wunderground v.1.15,2013-01-18 17:00:00,
2013-01-18 11:10:00,45.4,31.5,30.52,ESE,117,0.0,11.0,58,0.00,,,0.00,Wunderground v.1.15,2013-01-18 17:10:00,
2013-01-18 11:20:00,46.0,32.5,30.52,SE,141,0.0,11.0,59,0.00,,,0.00,Wunderground v.1.15,2013-01-18 17:20:00,
2013-01-18 11:30:00,47.3,32.8,30.51,SE,141,0.0,11.0,57,0.00,,,0.00,Wunderground v.1.15,2013-01-18 17:30:00,
2013-01-18 11:40:00,47.1,31.3,30.50,SE,140,0.0,11.0,54,0.00,,,0.00,Wunderground v.1.15,2013-01-18 17:40:00,
2013-01-18 11:50:00,47.6,32.2,30.50,SE,140,0.0,11.0,55,0.00,,,0.00,Wunderground v.1.15,2013-01-18 17:50:00,
2013-01-18 12:00:00,47.3,31.0,30.49,SE,136,1.0,1.0,53,0.00,,,0.00,Wunderground v.1.15,2013-01-18 18:00:00,
2013-01-18 12:15:00,48.1,31.8,30.48,SE,146,1.0,11.0,53,0.00,,,0.00,Wunderground v.1.15,2013-01-18 18:15:00,
2013-01-18 12:20:00,48.8,31.0,30.48,SSE,150,1.0,1.0,50,0.00,,,0.00,Wunderground v.1.15,2013-01-18 18:20:00,
2013-01-18 12:35:00,50.6,31.6,30.46,South,184,0.0,11.0,48,0.00,,,0.00,Wunderground v.1.15,2013-01-18 18:35:00,
2013-01-18 12:40:00,51.1,31.6,30.45,SE,144,0.0,11.0,47,0.00,,,0.00,Wunderground v.1.15,2013-01-18 18:40:00,
2013-01-18 12:50:00,50.3,30.8,30.45,SSE,159,0.0,11.0,47,0.00,,,0.00,Wunderground v.1.15,2013-01-18 18:50:00,
2013-01-18 13:00:00,50.7,30.7,30.45,SSE,166,0.0,11.0,46,0.00,,,0.00,Wunderground v.1.15,2013-01-18 19:00:00,
2013-01-18 13:10:00,50.5,30.5,30.44,SE,136,0.0,11.0,46,0.00,,,0.00,Wunderground v.1.15,2013-01-18 19:10:00,
2013-01-18 13:30:00,52.3,29.3,30.43,SSE,165,0.0,11.0,41,0.00,,,0.00,Wunderground v.1.15,2013-01-18 19:30:00,
2013-01-18 13:40:00,52.6,30.7,30.42,South,184,0.0,11.0,43,0.00,,,0.00,Wunderground v.1.15,2013-01-18 19:40:00,
2013-01-18 13:50:00,53.5,31.5,30.42,South,191,0.0,11.0,43,0.00,,,0.00,Wunderground v.1.15,2013-01-18 19:50:00,
2013-01-18 14:00:00,53.8,31.2,30.41,SSW,207,0.0,11.0,42,0.00,,,0.00,Wunderground v.1.15,2013-01-18 20:00:00,
2013-01-18 14:10:00,53.3,30.8,30.41,SSE,150,0.0,11.0,42,0.00,,,0.00,Wunderground v.1.15,2013-01-18 20:10:00,
2013-01-18 14:20:00,53.8,30.0,30.41,SSW,193,0.0,11.0,40,0.00,,,0.00,Wunderground v.1.15,2013-01-18 20:20:00,
2013-01-18 14:30:00,53.2,29.5,30.40,SSE,163,0.0,11.0,40,0.00,,,0.00,Wunderground v.1.15,2013-01-18 20:30:00,
2013-01-18 14:40:00,53.9,30.1,30.40,SSW,205,0.0,11.0,40,0.00,,,0.00,Wunderground v.1.15,2013-01-18 20:40:00,
2013-01-18 14:50:00,54.1,30.3,30.40,South,184,0.0,11.0,40,0.00,,,0.00,Wunderground v.1.15,2013-01-18 20:50:00,
2013-01-18 15:00:00,53.9,29.5,30.39,South,182,0.0,11.0,39,0.00,,,0.00,Wunderground v.1.15,2013-01-18 21:00:00,
2013-01-18 15:10:00,54.2,29.8,30.39,SSE,156,0.0,11.0,39,0.00,,,0.00,Wunderground v.1.15,2013-01-18 21:10:00,
2013-01-18 15:20:00,54.2,29.8,30.39,South,183,0.0,11.0,39,0.00,,,0.00,Wunderground v.1.15,2013-01-18 21:20:00,
2013-01-18 15:30:00,54.4,29.3,30.38,SSW,199,0.0,11.0,38,0.00,,,0.00,Wunderground v.1.15,2013-01-18 21:30:00,
2013-01-18 15:40:00,54.6,29.5,30.38,South,186,0.0,11.0,38,0.00,,,0.00,Wunderground v.1.15,2013-01-18 21:40:00,
2013-01-18 15:50:00,54.3,29.2,30.38,SSE,152,0.0,11.0,38,0.00,,,0.00,Wunderground v.1.15,2013-01-18 21:50:00,
2013-01-18 16:00:00,54.1,29.0,30.37,South,183,0.0,11.0,38,0.00,,,0.00,Wunderground v.1.15,2013-01-18 22:00:00,
2013-01-18 16:10:00,54.1,29.0,30.37,SSW,209,0.0,11.0,38,0.00,,,0.00,Wunderground v.1.15,2013-01-18 22:10:00,
2013-01-18 16:20:00,53.8,28.8,30.37,South,184,0.0,11.0,38,0.00,,,0.00,Wunderground v.1.15,2013-01-18 22:20:00,
2013-01-18 16:35:00,53.5,29.1,30.37,South,190,0.0,11.0,39,0.00,,,0.00,Wunderground v.1.15,2013-01-18 22:35:00,
2013-01-18 16:40:00,53.4,28.4,30.37,SSW,209,0.0,11.0,38,0.00,,,0.00,Wunderground v.1.15,2013-01-18 22:40:00,
2013-01-18 16:50:00,52.9,29.8,30.37,South,189,0.0,11.0,41,0.00,,,0.00,Wunderground v.1.15,2013-01-18 22:50:00,
2013-01-18 17:00:00,52.2,28.6,30.37,South,185,0.0,11.0,40,0.00,,,0.00,Wunderground v.1.15,2013-01-18 23:00:00,
2013-01-18 17:10:00,51.4,27.9,30.37,South,190,0.0,11.0,40,0.00,,,0.00,Wunderground v.1.15,2013-01-18 23:10:00,
2013-01-18 17:20:00,50.6,27.7,30.37,South,188,0.0,11.0,41,0.00,,,0.00,Wunderground v.1.15,2013-01-18 23:20:00,
2013-01-18 17:30:00,49.9,27.7,30.36,South,190,0.0,11.0,42,0.00,,,0.00,Wunderground v.1.15,2013-01-18 23:30:00,
2013-01-18 17:40:00,49.2,27.6,30.37,South,189,0.0,11.0,43,0.00,,,0.00,Wunderground v.1.15,2013-01-18 23:40:00,
2013-01-18 17:50:00,48.8,28.4,30.37,South,188,0.0,11.0,45,0.00,,,0.00,Wunderground v.1.15,2013-01-18 23:50:00,
2013-01-18 18:00:00,48.1,28.8,30.36,South,189,0.0,11.0,47,0.00,,,0.00,Wunderground v.1.15,2013-01-19 00:00:00,
2013-01-18 18:10:00,47.8,29.0,30.35,South,189,0.0,11.0,48,0.00,,,0.00,Wunderground v.1.15,2013-01-19 00:10:00,
2013-01-18 18:20:00,47.6,29.4,30.35,South,189,0.0,11.0,49,0.00,,,0.00,Wunderground v.1.15,2013-01-19 00:20:00,
2013-01-18 18:30:00,47.4,29.7,30.36,South,189,0.0,11.0,50,0.00,,,0.00,Wunderground v.1.15,2013-01-19 00:30:00,
2013-01-18 18:40:00,47.2,29.5,30.36,South,189,0.0,11.0,50,0.00,,,0.00,Wunderground v.1.15,2013-01-19 00:40:00,
2013-01-18 18:50:00,46.9,30.2,30.36,South,189,0.0,11.0,52,0.00,,,0.00,Wunderground v.1.15,2013-01-19 00:50:00,
2013-01-18 19:00:00,46.1,29.9,30.36,South,190,0.0,11.0,53,0.00,,,0.00,Wunderground v.1.15,2013-01-19 01:00:00,
2013-01-18 19:10:00,45.7,29.5,30.35,South,189,0.0,11.0,53,0.00,,,0.00,Wunderground v.1.15,2013-01-19 01:10:00,
2013-01-18 19:20:00,45.7,29.5,30.35,South,189,0.0,11.0,53,0.00,,,0.00,Wunderground v.1.15,2013-01-19 01:20:00,
2013-01-18 19:30:00,45.5,29.8,30.35,South,189,0.0,11.0,54,0.00,,,0.00,Wunderground v.1.15,2013-01-19 01:30:00,
2013-01-18 19:40:00,44.9,29.7,30.35,South,190,0.0,11.0,55,0.00,,,0.00,Wunderground v.1.15,2013-01-19 01:40:00,
2013-01-18 19:50:00,44.5,29.8,30.35,South,189,0.0,11.0,56,0.00,,,0.00,Wunderground v.1.15,2013-01-19 01:50:00,
2013-01-18 20:00:00,44.2,29.9,30.35,South,189,0.0,11.0,57,0.00,,,0.00,Wunderground v.1.15,2013-01-19 02:00:00,
2013-01-18 20:10:00,43.9,30.1,30.35,South,189,0.0,11.0,58,0.00,,,0.00,Wunderground v.1.15,2013-01-19 02:10:00,
2013-01-18 20:20:00,43.6,29.8,30.35,South,190,0.0,11.0,58,0.00,,,0.00,Wunderground v.1.15,2013-01-19 02:20:00,
2013-01-18 20:30:00,42.9,30.0,30.35,South,189,0.0,11.0,60,0.00,,,0.00,Wunderground v.1.15,2013-01-19 02:30:00,
2013-01-18 20:40:00,42.1,29.6,30.35,South,189,0.0,11.0,61,0.00,,,0.00,Wunderground v.1.15,2013-01-19 02:40:00,
2013-01-18 20:50:00,41.2,29.9,30.35,South,189,0.0,11.0,64,0.00,,,0.00,Wunderground v.1.15,2013-01-19 02:50:00,
2013-01-18 21:00:00,40.8,29.6,30.34,South,188,0.0,11.0,64,0.00,,,0.00,Wunderground v.1.15,2013-01-19 03:00:00,
2013-01-18 21:10:00,41.2,29.5,30.34,South,188,0.0,11.0,63,0.00,,,0.00,Wunderground v.1.15,2013-01-19 03:10:00,
2013-01-18 21:20:00,41.3,30.0,30.34,South,188,0.0,11.0,64,0.00,,,0.00,Wunderground v.1.15,2013-01-19 03:20:00,
2013-01-18 21:30:00,40.6,30.1,30.34,South,189,0.0,11.0,66,0.00,,,0.00,Wunderground v.1.15,2013-01-19 03:30:00,
2013-01-18 21:40:00,40.1,30.0,30.33,South,189,0.0,11.0,67,0.00,,,0.00,Wunderground v.1.15,2013-01-19 03:40:00,
2013-01-18 21:50:00,39.7,30.0,30.33,South,188,0.0,11.0,68,0.00,,,0.00,Wunderground v.1.15,2013-01-19 03:50:00,
2013-01-18 22:05:00,40.6,30.1,30.33,South,189,0.0,11.0,66,0.00,,,0.00,Wunderground v.1.15,2013-01-19 04:05:00,
2013-01-18 22:10:00,41.1,30.2,30.32,South,189,0.0,11.0,65,0.00,,,0.00,Wunderground v.1.15,2013-01-19 04:10:00,
2013-01-18 22:20:00,41.3,30.0,30.32,South,188,0.0,11.0,64,0.00,,,0.00,Wunderground v.1.15,2013-01-19 04:20:00,
2013-01-18 22:30:00,41.0,29.7,30.32,South,188,0.0,11.0,64,0.00,,,0.00,Wunderground v.1.15,2013-01-19 04:30:00,
2013-01-18 22:40:00,40.9,30.0,30.32,South,189,0.0,11.0,65,0.00,,,0.00,Wunderground v.1.15,2013-01-19 04:40:00,
2013-01-18 22:50:00,41.0,30.1,30.32,South,189,0.0,11.0,65,0.00,,,0.00,Wunderground v.1.15,2013-01-19 04:50:00,
2013-01-18 23:05:00,40.7,29.8,30.32,South,189,0.0,11.0,65,0.00,,,0.00,Wunderground v.1.15,2013-01-19 05:05:00,
2013-01-18 23:10:00,40.7,30.2,30.32,South,189,0.0,11.0,66,0.00,,,0.00,Wunderground v.1.15,2013-01-19 05:10:00,
2013-01-18 23:20:00,40.3,29.8,30.32,South,189,0.0,11.0,66,0.00,,,0.00,Wunderground v.1.15,2013-01-19 05:20:00,
2013-01-18 23:25:00,40.1,30.0,30.32,South,189,0.0,11.0,67,0.00,,,0.00,Wunderground v.1.15,2013-01-19 05:25:00,
2013-01-18 23:35:00,39.5,29.8,30.32,South,189,0.0,11.0,68,0.00,,,0.00,Wunderground v.1.15,2013-01-19 05:35:00,
2013-01-18 23:40:00,39.3,30.0,30.32,South,188,0.0,11.0,69,0.00,,,0.00,Wunderground v.1.15,2013-01-19 05:40:00,
2013-01-18 23:50:00,39.3,30.0,30.32,South,188,0.0,11.0,69,0.00,,,0.00,Wunderground v.1.15,2013-01-19 05:50:00,